sensor_id;sensor_type;location;lat;lon;timestamp;P1;durP1;ratioP1;P2;durP2;ratioP2
62848;SDS011;48941;49.516;8.286;2023-11-19T00:00:27;5.32;;;3.90;;
62848;SDS011;48941;49.516;8.286;2023-11-19T00:02:55;6.47;;;3.95;;
62848;SDS011;48941;49.516;8.286;2023-11-19T00:05:22;5.68;;;4.25;;
62848;SDS011;48941;49.516;8.286;2023-11-19T00:07:53;9.60;;;5.07;;
62848;SDS011;48941;49.516;8.286;2023-11-19T00:10:22;5.07;;;3.58;;
62848;SDS011;48941;49.516;8.286;2023-11-19T00:12:51;6.30;;;3.65;;
62848;SDS011;48941;49.516;8.286;2023-11-19T00:15:19;5.78;;;3.70;;
62848;SDS011;48941;49.516;8.286;2023-11-19T00:17:47;6.40;;;3.60;;
62848;SDS011;48941;49.516;8.286;2023-11-19T00:20:16;5.40;;;3.40;;
62848;SDS011;48941;49.516;8.286;2023-11-19T00:22:45;4.97;;;3.30;;
62848;SDS011;48941;49.516;8.286;2023-11-19T00:25:16;3.08;;;2.70;;
62848;SDS011;48941;49.516;8.286;2023-11-19T00:27:44;2.85;;;2.40;;
62848;SDS011;48941;49.516;8.286;2023-11-19T00:30:14;4.90;;;2.80;;
62848;SDS011;48941;49.516;8.286;2023-11-19T00:32:43;3.58;;;2.58;;
62848;SDS011;48941;49.516;8.286;2023-11-19T00:35:12;4.50;;;2.50;;
62848;SDS011;48941;49.516;8.286;2023-11-19T00:37:40;5.18;;;2.58;;
62848;SDS011;48941;49.516;8.286;2023-11-19T00:40:09;4.70;;;2.83;;
62848;SDS011;48941;49.516;8.286;2023-11-19T00:42:38;3.47;;;2.60;;
62848;SDS011;48941;49.516;8.286;2023-11-19T00:45:06;3.17;;;2.10;;
62848;SDS011;48941;49.516;8.286;2023-11-19T00:47:38;3.75;;;2.28;;
62848;SDS011;48941;49.516;8.286;2023-11-19T00:50:08;2.83;;;2.22;;
62848;SDS011;48941;49.516;8.286;2023-11-19T00:52:37;3.97;;;2.10;;
62848;SDS011;48941;49.516;8.286;2023-11-19T00:55:06;1.50;;;1.30;;
62848;SDS011;48941;49.516;8.286;2023-11-19T00:57:35;1.27;;;1.08;;
62848;SDS011;48941;49.516;8.286;2023-11-19T01:00:03;3.72;;;1.70;;
62848;SDS011;48941;49.516;8.286;2023-11-19T01:02:35;2.65;;;2.00;;
62848;SDS011;48941;49.516;8.286;2023-11-19T01:05:07;3.38;;;2.00;;
62848;SDS011;48941;49.516;8.286;2023-11-19T01:07:36;2.33;;;2.00;;
62848;SDS011;48941;49.516;8.286;2023-11-19T01:10:06;4.45;;;2.55;;
62848;SDS011;48941;49.516;8.286;2023-11-19T01:12:35;4.97;;;2.97;;
62848;SDS011;48941;49.516;8.286;2023-11-19T01:15:04;3.53;;;2.95;;
62848;SDS011;48941;49.516;8.286;2023-11-19T01:17:33;3.75;;;2.30;;
62848;SDS011;48941;49.516;8.286;2023-11-19T01:20:00;2.90;;;1.90;;
62848;SDS011;48941;49.516;8.286;2023-11-19T01:22:31;2.00;;;1.80;;
62848;SDS011;48941;49.516;8.286;2023-11-19T01:24:59;3.42;;;1.70;;
62848;SDS011;48941;49.516;8.286;2023-11-19T01:27:27;1.63;;;1.52;;
62848;SDS011;48941;49.516;8.286;2023-11-19T01:29:55;2.72;;;1.30;;
62848;SDS011;48941;49.516;8.286;2023-11-19T01:32:22;2.92;;;1.63;;
62848;SDS011;48941;49.516;8.286;2023-11-19T01:34:50;0.95;;;0.80;;
62848;SDS011;48941;49.516;8.286;2023-11-19T01:37:18;0.63;;;0.60;;
62848;SDS011;48941;49.516;8.286;2023-11-19T01:39:47;0.70;;;0.70;;
62848;SDS011;48941;49.516;8.286;2023-11-19T01:42:24;0.68;;;0.68;;
62848;SDS011;48941;49.516;8.286;2023-11-19T01:44:54;0.50;;;0.50;;
62848;SDS011;48941;49.516;8.286;2023-11-19T01:47:25;0.60;;;0.60;;
62848;SDS011;48941;49.516;8.286;2023-11-19T01:49:53;2.13;;;0.50;;
62848;SDS011;48941;49.516;8.286;2023-11-19T01:52:21;2.80;;;1.65;;
62848;SDS011;48941;49.516;8.286;2023-11-19T01:54:51;2.13;;;1.90;;
62848;SDS011;48941;49.516;8.286;2023-11-19T01:57:20;0.85;;;0.85;;
62848;SDS011;48941;49.516;8.286;2023-11-19T01:59:51;0.40;;;0.40;;
62848;SDS011;48941;49.516;8.286;2023-11-19T02:02:20;1.02;;;0.50;;
62848;SDS011;48941;49.516;8.286;2023-11-19T02:04:49;0.30;;;0.30;;
62848;SDS011;48941;49.516;8.286;2023-11-19T02:07:19;0.40;;;0.40;;
62848;SDS011;48941;49.516;8.286;2023-11-19T02:09:48;0.88;;;0.60;;
62848;SDS011;48941;49.516;8.286;2023-11-19T02:12:17;0.40;;;0.40;;
62848;SDS011;48941;49.516;8.286;2023-11-19T02:14:47;2.35;;;1.40;;
62848;SDS011;48941;49.516;8.286;2023-11-19T02:17:27;5.03;;;2.15;;
62848;SDS011;48941;49.516;8.286;2023-11-19T02:19:57;1.80;;;1.30;;
62848;SDS011;48941;49.516;8.286;2023-11-19T02:22:28;1.08;;;0.98;;
62848;SDS011;48941;49.516;8.286;2023-11-19T02:24:58;3.30;;;1.60;;
62848;SDS011;48941;49.516;8.286;2023-11-19T02:30:02;0.80;;;0.80;;
62848;SDS011;48941;49.516;8.286;2023-11-19T02:32:32;0.60;;;0.60;;
62848;SDS011;48941;49.516;8.286;2023-11-19T02:35:00;0.70;;;0.70;;
62848;SDS011;48941;49.516;8.286;2023-11-19T02:37:31;2.45;;;1.00;;
62848;SDS011;48941;49.516;8.286;2023-11-19T02:39:58;0.55;;;0.55;;
62848;SDS011;48941;49.516;8.286;2023-11-19T02:42:36;0.60;;;0.60;;
62848;SDS011;48941;49.516;8.286;2023-11-19T02:45:06;0.47;;;0.47;;
62848;SDS011;48941;49.516;8.286;2023-11-19T02:47:40;0.40;;;0.40;;
62848;SDS011;48941;49.516;8.286;2023-11-19T02:50:08;0.35;;;0.35;;
62848;SDS011;48941;49.516;8.286;2023-11-19T02:52:41;0.50;;;0.50;;
62848;SDS011;48941;49.516;8.286;2023-11-19T02:55:09;0.88;;;0.57;;
62848;SDS011;48941;49.516;8.286;2023-11-19T02:57:39;0.75;;;0.60;;
62848;SDS011;48941;49.516;8.286;2023-11-19T03:00:14;0.40;;;0.40;;
62848;SDS011;48941;49.516;8.286;2023-11-19T03:02:43;0.30;;;0.30;;
62848;SDS011;48941;49.516;8.286;2023-11-19T03:05:13;1.50;;;0.57;;
62848;SDS011;48941;49.516;8.286;2023-11-19T03:07:43;0.50;;;0.50;;
62848;SDS011;48941;49.516;8.286;2023-11-19T03:10:11;0.85;;;0.63;;
62848;SDS011;48941;49.516;8.286;2023-11-19T03:12:40;0.50;;;0.50;;
62848;SDS011;48941;49.516;8.286;2023-11-19T03:15:08;0.52;;;0.52;;
62848;SDS011;48941;49.516;8.286;2023-11-19T03:17:38;0.90;;;0.60;;
62848;SDS011;48941;49.516;8.286;2023-11-19T03:20:06;0.75;;;0.75;;
62848;SDS011;48941;49.516;8.286;2023-11-19T03:22:37;1.30;;;1.02;;
62848;SDS011;48941;49.516;8.286;2023-11-19T03:25:05;1.00;;;0.80;;
62848;SDS011;48941;49.516;8.286;2023-11-19T03:27:34;0.73;;;0.73;;
62848;SDS011;48941;49.516;8.286;2023-11-19T03:30:03;0.95;;;0.70;;
62848;SDS011;48941;49.516;8.286;2023-11-19T03:32:31;0.75;;;0.75;;
62848;SDS011;48941;49.516;8.286;2023-11-19T03:35:03;0.63;;;0.63;;
62848;SDS011;48941;49.516;8.286;2023-11-19T03:37:33;3.63;;;0.80;;
62848;SDS011;48941;49.516;8.286;2023-11-19T03:40:02;0.80;;;0.80;;
62848;SDS011;48941;49.516;8.286;2023-11-19T03:42:31;0.70;;;0.70;;
62848;SDS011;48941;49.516;8.286;2023-11-19T03:45:01;3.50;;;0.88;;
62848;SDS011;48941;49.516;8.286;2023-11-19T03:47:30;0.68;;;0.68;;
62848;SDS011;48941;49.516;8.286;2023-11-19T03:49:58;1.08;;;0.82;;
62848;SDS011;48941;49.516;8.286;2023-11-19T03:52:27;0.70;;;0.70;;
62848;SDS011;48941;49.516;8.286;2023-11-19T03:54:55;0.98;;;0.98;;
62848;SDS011;48941;49.516;8.286;2023-11-19T03:57:23;2.88;;;0.93;;
62848;SDS011;48941;49.516;8.286;2023-11-19T03:59:51;1.08;;;1.00;;
62848;SDS011;48941;49.516;8.286;2023-11-19T04:02:19;1.00;;;0.90;;
62848;SDS011;48941;49.516;8.286;2023-11-19T04:04:47;1.15;;;0.90;;
62848;SDS011;48941;49.516;8.286;2023-11-19T04:07:15;0.80;;;0.80;;
62848;SDS011;48941;49.516;8.286;2023-11-19T04:09:44;0.95;;;0.95;;
62848;SDS011;48941;49.516;8.286;2023-11-19T04:12:13;12.80;;;6.47;;
62848;SDS011;48941;49.516;8.286;2023-11-19T04:14:40;2.38;;;1.60;;
62848;SDS011;48941;49.516;8.286;2023-11-19T04:17:08;2.90;;;1.00;;
62848;SDS011;48941;49.516;8.286;2023-11-19T04:19:36;1.48;;;1.38;;
62848;SDS011;48941;49.516;8.286;2023-11-19T04:22:07;1.20;;;1.10;;
62848;SDS011;48941;49.516;8.286;2023-11-19T04:24:35;0.90;;;0.90;;
62848;SDS011;48941;49.516;8.286;2023-11-19T04:27:05;1.20;;;1.10;;
62848;SDS011;48941;49.516;8.286;2023-11-19T04:29:32;1.10;;;1.10;;
62848;SDS011;48941;49.516;8.286;2023-11-19T04:32:00;1.30;;;1.20;;
62848;SDS011;48941;49.516;8.286;2023-11-19T04:34:28;2.58;;;1.35;;
62848;SDS011;48941;49.516;8.286;2023-11-19T04:36:56;1.50;;;1.40;;
62848;SDS011;48941;49.516;8.286;2023-11-19T04:39:37;1.20;;;1.10;;
62848;SDS011;48941;49.516;8.286;2023-11-19T04:42:06;1.02;;;1.02;;
62848;SDS011;48941;49.516;8.286;2023-11-19T04:44:35;1.50;;;1.40;;
62848;SDS011;48941;49.516;8.286;2023-11-19T04:47:03;1.98;;;1.75;;
62848;SDS011;48941;49.516;8.286;2023-11-19T04:49:31;2.03;;;1.70;;
62848;SDS011;48941;49.516;8.286;2023-11-19T04:51:59;2.83;;;1.75;;
62848;SDS011;48941;49.516;8.286;2023-11-19T04:54:27;2.38;;;2.03;;
62848;SDS011;48941;49.516;8.286;2023-11-19T04:56:55;1.70;;;1.60;;
62848;SDS011;48941;49.516;8.286;2023-11-19T04:59:24;1.60;;;1.50;;
62848;SDS011;48941;49.516;8.286;2023-11-19T05:01:53;2.78;;;1.40;;
62848;SDS011;48941;49.516;8.286;2023-11-19T05:04:21;1.98;;;1.35;;
62848;SDS011;48941;49.516;8.286;2023-11-19T05:06:49;1.73;;;1.58;;
62848;SDS011;48941;49.516;8.286;2023-11-19T05:09:17;1.20;;;1.20;;
62848;SDS011;48941;49.516;8.286;2023-11-19T05:11:45;1.77;;;1.67;;
62848;SDS011;48941;49.516;8.286;2023-11-19T05:14:17;4.25;;;1.98;;
62848;SDS011;48941;49.516;8.286;2023-11-19T05:16:48;2.38;;;1.70;;
62848;SDS011;48941;49.516;8.286;2023-11-19T05:19:16;1.88;;;1.77;;
62848;SDS011;48941;49.516;8.286;2023-11-19T05:21:44;1.70;;;1.60;;
62848;SDS011;48941;49.516;8.286;2023-11-19T05:24:12;1.50;;;1.40;;
62848;SDS011;48941;49.516;8.286;2023-11-19T05:26:39;1.63;;;1.52;;
62848;SDS011;48941;49.516;8.286;2023-11-19T05:29:07;1.58;;;1.42;;
62848;SDS011;48941;49.516;8.286;2023-11-19T05:31:35;2.60;;;2.20;;
62848;SDS011;48941;49.516;8.286;2023-11-19T05:34:06;2.35;;;1.50;;
62848;SDS011;48941;49.516;8.286;2023-11-19T05:36:34;2.88;;;1.55;;
62848;SDS011;48941;49.516;8.286;2023-11-19T05:39:02;1.67;;;1.58;;
62848;SDS011;48941;49.516;8.286;2023-11-19T05:41:31;1.58;;;1.42;;
62848;SDS011;48941;49.516;8.286;2023-11-19T05:43:59;2.58;;;1.50;;
62848;SDS011;48941;49.516;8.286;2023-11-19T05:46:26;1.88;;;1.70;;
62848;SDS011;48941;49.516;8.286;2023-11-19T05:48:54;2.88;;;1.63;;
62848;SDS011;48941;49.516;8.286;2023-11-19T05:51:23;1.65;;;1.55;;
62848;SDS011;48941;49.516;8.286;2023-11-19T05:53:51;1.63;;;1.52;;
62848;SDS011;48941;49.516;8.286;2023-11-19T05:56:21;2.08;;;1.77;;
62848;SDS011;48941;49.516;8.286;2023-11-19T05:58:49;2.65;;;2.35;;
62848;SDS011;48941;49.516;8.286;2023-11-19T06:01:17;3.67;;;1.90;;
62848;SDS011;48941;49.516;8.286;2023-11-19T06:03:45;1.88;;;1.70;;
62848;SDS011;48941;49.516;8.286;2023-11-19T06:06:16;6.00;;;2.45;;
62848;SDS011;48941;49.516;8.286;2023-11-19T06:08:46;2.47;;;1.90;;
62848;SDS011;48941;49.516;8.286;2023-11-19T06:11:14;1.95;;;1.77;;
62848;SDS011;48941;49.516;8.286;2023-11-19T06:13:45;1.77;;;1.67;;
62848;SDS011;48941;49.516;8.286;2023-11-19T06:16:14;2.38;;;1.70;;
62848;SDS011;48941;49.516;8.286;2023-11-19T06:18:42;2.08;;;1.90;;
62848;SDS011;48941;49.516;8.286;2023-11-19T06:21:10;2.33;;;2.00;;
62848;SDS011;48941;49.516;8.286;2023-11-19T06:23:38;1.90;;;1.80;;
62848;SDS011;48941;49.516;8.286;2023-11-19T06:26:07;3.08;;;2.10;;
62848;SDS011;48941;49.516;8.286;2023-11-19T06:28:36;2.65;;;2.00;;
62848;SDS011;48941;49.516;8.286;2023-11-19T06:31:04;3.45;;;1.90;;
62848;SDS011;48941;49.516;8.286;2023-11-19T06:33:32;2.40;;;1.75;;
62848;SDS011;48941;49.516;8.286;2023-11-19T06:36:00;2.83;;;1.75;;
62848;SDS011;48941;49.516;8.286;2023-11-19T06:38:28;2.33;;;2.00;;
62848;SDS011;48941;49.516;8.286;2023-11-19T06:40:55;1.92;;;1.70;;
62848;SDS011;48941;49.516;8.286;2023-11-19T06:43:25;2.00;;;1.63;;
62848;SDS011;48941;49.516;8.286;2023-11-19T06:46:13;3.97;;;1.85;;
62848;SDS011;48941;49.516;8.286;2023-11-19T06:48:42;3.08;;;1.88;;
62848;SDS011;48941;49.516;8.286;2023-11-19T06:51:11;3.55;;;1.85;;
62848;SDS011;48941;49.516;8.286;2023-11-19T06:53:39;4.85;;;2.00;;
62848;SDS011;48941;49.516;8.286;2023-11-19T06:56:16;2.45;;;2.08;;
62848;SDS011;48941;49.516;8.286;2023-11-19T06:58:47;2.58;;;2.00;;
62848;SDS011;48941;49.516;8.286;2023-11-19T07:01:15;3.50;;;2.20;;
62848;SDS011;48941;49.516;8.286;2023-11-19T07:03:44;5.53;;;2.08;;
62848;SDS011;48941;49.516;8.286;2023-11-19T07:06:13;2.20;;;2.00;;
62848;SDS011;48941;49.516;8.286;2023-11-19T07:08:40;1.70;;;1.60;;
62848;SDS011;48941;49.516;8.286;2023-11-19T07:11:11;2.35;;;1.88;;
62848;SDS011;48941;49.516;8.286;2023-11-19T07:13:40;2.58;;;1.60;;
62848;SDS011;48941;49.516;8.286;2023-11-19T07:16:10;4.38;;;2.55;;
62848;SDS011;48941;49.516;8.286;2023-11-19T07:18:38;3.05;;;1.50;;
62848;SDS011;48941;49.516;8.286;2023-11-19T07:21:08;3.15;;;1.70;;
62848;SDS011;48941;49.516;8.286;2023-11-19T07:23:36;2.17;;;1.55;;
62848;SDS011;48941;49.516;8.286;2023-11-19T07:26:06;2.80;;;2.17;;
62848;SDS011;48941;49.516;8.286;2023-11-19T07:28:36;3.50;;;1.83;;
62848;SDS011;48941;49.516;8.286;2023-11-19T07:31:04;2.08;;;1.60;;
62848;SDS011;48941;49.516;8.286;2023-11-19T07:33:35;3.58;;;2.00;;
62848;SDS011;48941;49.516;8.286;2023-11-19T07:36:04;5.50;;;2.00;;
62848;SDS011;48941;49.516;8.286;2023-11-19T07:38:32;2.20;;;1.70;;
62848;SDS011;48941;49.516;8.286;2023-11-19T07:41:00;6.53;;;2.20;;
62848;SDS011;48941;49.516;8.286;2023-11-19T07:43:28;6.13;;;2.30;;
62848;SDS011;48941;49.516;8.286;2023-11-19T07:45:56;3.67;;;2.20;;
62848;SDS011;48941;49.516;8.286;2023-11-19T07:48:25;7.00;;;2.55;;
62848;SDS011;48941;49.516;8.286;2023-11-19T07:50:54;3.25;;;1.90;;
62848;SDS011;48941;49.516;8.286;2023-11-19T07:53:23;2.92;;;1.60;;
62848;SDS011;48941;49.516;8.286;2023-11-19T07:55:51;3.80;;;1.73;;
62848;SDS011;48941;49.516;8.286;2023-11-19T07:58:20;4.93;;;1.77;;
62848;SDS011;48941;49.516;8.286;2023-11-19T08:00:48;1.83;;;1.52;;
62848;SDS011;48941;49.516;8.286;2023-11-19T08:03:16;1.50;;;1.40;;
62848;SDS011;48941;49.516;8.286;2023-11-19T08:05:45;1.85;;;1.05;;
62848;SDS011;48941;49.516;8.286;2023-11-19T08:08:14;4.32;;;1.30;;
62848;SDS011;48941;49.516;8.286;2023-11-19T08:10:41;4.50;;;2.20;;
62848;SDS011;48941;49.516;8.286;2023-11-19T08:13:11;3.47;;;1.98;;
62848;SDS011;48941;49.516;8.286;2023-11-19T08:15:39;5.40;;;2.10;;
62848;SDS011;48941;49.516;8.286;2023-11-19T08:18:07;3.08;;;1.73;;
62848;SDS011;48941;49.516;8.286;2023-11-19T08:20:35;1.90;;;1.80;;
62848;SDS011;48941;49.516;8.286;2023-11-19T08:23:03;2.00;;;1.80;;
62848;SDS011;48941;49.516;8.286;2023-11-19T08:25:33;4.25;;;1.80;;
62848;SDS011;48941;49.516;8.286;2023-11-19T08:28:01;1.92;;;1.50;;
62848;SDS011;48941;49.516;8.286;2023-11-19T08:30:29;3.33;;;2.08;;
62848;SDS011;48941;49.516;8.286;2023-11-19T08:32:57;1.77;;;1.65;;
62848;SDS011;48941;49.516;8.286;2023-11-19T08:35:29;2.78;;;1.70;;
62848;SDS011;48941;49.516;8.286;2023-11-19T08:37:58;3.85;;;1.88;;
62848;SDS011;48941;49.516;8.286;2023-11-19T08:40:26;2.63;;;1.67;;
62848;SDS011;48941;49.516;8.286;2023-11-19T08:42:55;3.05;;;1.70;;
62848;SDS011;48941;49.516;8.286;2023-11-19T08:45:24;1.92;;;1.80;;
62848;SDS011;48941;49.516;8.286;2023-11-19T08:47:52;2.50;;;1.80;;
62848;SDS011;48941;49.516;8.286;2023-11-19T08:50:20;1.98;;;1.70;;
62848;SDS011;48941;49.516;8.286;2023-11-19T08:52:49;2.60;;;1.85;;
62848;SDS011;48941;49.516;8.286;2023-11-19T08:55:17;2.13;;;1.90;;
62848;SDS011;48941;49.516;8.286;2023-11-19T08:57:45;9.05;;;3.25;;
62848;SDS011;48941;49.516;8.286;2023-11-19T09:00:14;5.55;;;2.03;;
62848;SDS011;48941;49.516;8.286;2023-11-19T09:02:42;5.18;;;2.20;;
62848;SDS011;48941;49.516;8.286;2023-11-19T09:05:10;7.47;;;2.85;;
62848;SDS011;48941;49.516;8.286;2023-11-19T09:07:39;6.20;;;2.40;;
62848;SDS011;48941;49.516;8.286;2023-11-19T09:10:07;4.80;;;2.40;;
62848;SDS011;48941;49.516;8.286;2023-11-19T09:12:37;6.80;;;2.10;;
62848;SDS011;48941;49.516;8.286;2023-11-19T09:15:05;6.63;;;2.28;;
62848;SDS011;48941;49.516;8.286;2023-11-19T09:17:38;7.13;;;2.35;;
62848;SDS011;48941;49.516;8.286;2023-11-19T09:20:07;5.25;;;1.95;;
62848;SDS011;48941;49.516;8.286;2023-11-19T09:22:38;4.97;;;1.73;;
62848;SDS011;48941;49.516;8.286;2023-11-19T09:25:06;6.15;;;2.13;;
62848;SDS011;48941;49.516;8.286;2023-11-19T09:27:35;4.80;;;2.47;;
62848;SDS011;48941;49.516;8.286;2023-11-19T09:30:03;5.35;;;1.50;;
62848;SDS011;48941;49.516;8.286;2023-11-19T09:32:32;5.03;;;1.70;;
62848;SDS011;48941;49.516;8.286;2023-11-19T09:35:02;2.47;;;1.70;;
62848;SDS011;48941;49.516;8.286;2023-11-19T09:37:30;2.65;;;1.52;;
62848;SDS011;48941;49.516;8.286;2023-11-19T09:39:58;4.22;;;1.50;;
62848;SDS011;48941;49.516;8.286;2023-11-19T09:42:26;4.97;;;1.50;;
62848;SDS011;48941;49.516;8.286;2023-11-19T09:44:54;4.78;;;1.73;;
62848;SDS011;48941;49.516;8.286;2023-11-19T09:47:25;2.00;;;1.58;;
62848;SDS011;48941;49.516;8.286;2023-11-19T09:49:56;4.38;;;1.95;;
62848;SDS011;48941;49.516;8.286;2023-11-19T09:52:26;4.72;;;1.90;;
62848;SDS011;48941;49.516;8.286;2023-11-19T09:54:55;3.63;;;2.10;;
62848;SDS011;48941;49.516;8.286;2023-11-19T09:57:22;6.55;;;3.38;;
62848;SDS011;48941;49.516;8.286;2023-11-19T09:59:50;6.90;;;3.47;;
62848;SDS011;48941;49.516;8.286;2023-11-19T10:02:20;10.85;;;5.30;;
62848;SDS011;48941;49.516;8.286;2023-11-19T10:04:51;4.47;;;2.40;;
62848;SDS011;48941;49.516;8.286;2023-11-19T10:07:20;7.07;;;3.30;;
62848;SDS011;48941;49.516;8.286;2023-11-19T10:09:53;5.15;;;2.25;;
62848;SDS011;48941;49.516;8.286;2023-11-19T10:12:21;8.07;;;2.85;;
62848;SDS011;48941;49.516;8.286;2023-11-19T10:14:49;6.10;;;3.83;;
62848;SDS011;48941;49.516;8.286;2023-11-19T10:17:18;6.63;;;2.80;;
62848;SDS011;48941;49.516;8.286;2023-11-19T10:19:46;7.68;;;3.03;;
62848;SDS011;48941;49.516;8.286;2023-11-19T10:22:14;4.95;;;2.85;;
62848;SDS011;48941;49.516;8.286;2023-11-19T10:24:44;9.75;;;2.97;;
62848;SDS011;48941;49.516;8.286;2023-11-19T10:27:20;4.25;;;1.77;;
62848;SDS011;48941;49.516;8.286;2023-11-19T10:29:51;10.90;;;2.30;;
62848;SDS011;48941;49.516;8.286;2023-11-19T10:32:19;4.53;;;2.17;;
62848;SDS011;48941;49.516;8.286;2023-11-19T10:34:52;3.50;;;1.92;;
62848;SDS011;48941;49.516;8.286;2023-11-19T10:37:32;5.32;;;1.75;;
62848;SDS011;48941;49.516;8.286;2023-11-19T10:40:04;4.07;;;2.08;;
62848;SDS011;48941;49.516;8.286;2023-11-19T10:42:34;3.10;;;2.25;;
62848;SDS011;48941;49.516;8.286;2023-11-19T10:45:02;7.30;;;2.30;;
62848;SDS011;48941;49.516;8.286;2023-11-19T10:47:30;4.38;;;1.73;;
62848;SDS011;48941;49.516;8.286;2023-11-19T10:50:04;4.10;;;1.73;;
62848;SDS011;48941;49.516;8.286;2023-11-19T10:52:33;2.10;;;1.38;;
62848;SDS011;48941;49.516;8.286;2023-11-19T10:55:05;3.70;;;1.50;;
62848;SDS011;48941;49.516;8.286;2023-11-19T10:57:42;10.20;;;2.25;;
62848;SDS011;48941;49.516;8.286;2023-11-19T11:00:14;4.68;;;1.80;;
62848;SDS011;48941;49.516;8.286;2023-11-19T11:05:17;6.15;;;1.70;;
62848;SDS011;48941;49.516;8.286;2023-11-19T11:07:50;5.55;;;1.88;;
62848;SDS011;48941;49.516;8.286;2023-11-19T11:10:22;3.85;;;1.70;;
62848;SDS011;48941;49.516;8.286;2023-11-19T11:12:54;5.50;;;1.70;;
62848;SDS011;48941;49.516;8.286;2023-11-19T11:15:27;3.47;;;1.80;;
62848;SDS011;48941;49.516;8.286;2023-11-19T11:17:57;3.58;;;1.60;;
62848;SDS011;48941;49.516;8.286;2023-11-19T11:20:28;4.65;;;2.00;;
62848;SDS011;48941;49.516;8.286;2023-11-19T11:23:01;2.35;;;1.55;;
62848;SDS011;48941;49.516;8.286;2023-11-19T11:25:48;4.55;;;1.50;;
62848;SDS011;48941;49.516;8.286;2023-11-19T11:28:28;4.07;;;1.55;;
62848;SDS011;48941;49.516;8.286;2023-11-19T11:31:08;3.35;;;1.50;;
62848;SDS011;48941;49.516;8.286;2023-11-19T11:33:52;6.22;;;1.60;;
62848;SDS011;48941;49.516;8.286;2023-11-19T11:36:35;3.40;;;1.45;;
62848;SDS011;48941;49.516;8.286;2023-11-19T11:39:15;4.32;;;2.00;;
62848;SDS011;48941;49.516;8.286;2023-11-19T11:41:43;8.57;;;4.18;;
62848;SDS011;48941;49.516;8.286;2023-11-19T11:44:12;5.93;;;2.75;;
62848;SDS011;48941;49.516;8.286;2023-11-19T11:49:29;16.77;;;4.05;;
62848;SDS011;48941;49.516;8.286;2023-11-19T11:51:59;4.03;;;1.60;;
62848;SDS011;48941;49.516;8.286;2023-11-19T11:54:31;4.25;;;1.60;;
62848;SDS011;48941;49.516;8.286;2023-11-19T11:57:02;6.55;;;2.67;;
62848;SDS011;48941;49.516;8.286;2023-11-19T11:59:40;5.63;;;2.38;;
62848;SDS011;48941;49.516;8.286;2023-11-19T12:02:11;4.93;;;1.80;;
62848;SDS011;48941;49.516;8.286;2023-11-19T12:04:40;1.45;;;1.20;;
62848;SDS011;48941;49.516;8.286;2023-11-19T12:07:09;2.20;;;1.40;;
62848;SDS011;48941;49.516;8.286;2023-11-19T12:09:40;5.05;;;1.50;;
62848;SDS011;48941;49.516;8.286;2023-11-19T12:12:13;3.13;;;1.35;;
62848;SDS011;48941;49.516;8.286;2023-11-19T12:17:41;5.30;;;1.30;;
62848;SDS011;48941;49.516;8.286;2023-11-19T12:20:12;5.88;;;1.42;;
62848;SDS011;48941;49.516;8.286;2023-11-19T12:22:40;2.75;;;1.25;;
62848;SDS011;48941;49.516;8.286;2023-11-19T12:25:09;6.47;;;1.70;;
62848;SDS011;48941;49.516;8.286;2023-11-19T12:27:39;2.42;;;1.13;;
62848;SDS011;48941;49.516;8.286;2023-11-19T12:30:09;6.07;;;2.50;;
62848;SDS011;48941;49.516;8.286;2023-11-19T12:32:37;4.55;;;1.67;;
62848;SDS011;48941;49.516;8.286;2023-11-19T12:35:07;5.10;;;1.92;;
62848;SDS011;48941;49.516;8.286;2023-11-19T12:37:41;6.68;;;1.90;;
62848;SDS011;48941;49.516;8.286;2023-11-19T12:40:13;4.35;;;1.50;;
62848;SDS011;48941;49.516;8.286;2023-11-19T12:42:43;5.93;;;1.55;;
62848;SDS011;48941;49.516;8.286;2023-11-19T12:45:12;4.82;;;1.50;;
62848;SDS011;48941;49.516;8.286;2023-11-19T12:47:42;3.25;;;1.55;;
62848;SDS011;48941;49.516;8.286;2023-11-19T12:50:13;6.47;;;1.55;;
62848;SDS011;48941;49.516;8.286;2023-11-19T12:52:43;2.80;;;1.23;;
62848;SDS011;48941;49.516;8.286;2023-11-19T12:55:26;4.53;;;1.35;;
62848;SDS011;48941;49.516;8.286;2023-11-19T12:57:56;3.03;;;1.45;;
62848;SDS011;48941;49.516;8.286;2023-11-19T13:00:27;4.18;;;1.50;;
62848;SDS011;48941;49.516;8.286;2023-11-19T13:02:56;2.85;;;1.40;;
62848;SDS011;48941;49.516;8.286;2023-11-19T13:05:26;2.80;;;1.30;;
62848;SDS011;48941;49.516;8.286;2023-11-19T13:08:00;4.83;;;1.60;;
62848;SDS011;48941;49.516;8.286;2023-11-19T13:10:29;3.97;;;1.60;;
62848;SDS011;48941;49.516;8.286;2023-11-19T13:13:00;5.70;;;1.90;;
62848;SDS011;48941;49.516;8.286;2023-11-19T13:15:41;2.55;;;1.55;;
62848;SDS011;48941;49.516;8.286;2023-11-19T13:18:11;4.47;;;1.65;;
62848;SDS011;48941;49.516;8.286;2023-11-19T13:20:40;10.23;;;2.00;;
62848;SDS011;48941;49.516;8.286;2023-11-19T13:23:08;4.10;;;1.50;;
62848;SDS011;48941;49.516;8.286;2023-11-19T13:25:36;3.67;;;1.92;;
62848;SDS011;48941;49.516;8.286;2023-11-19T13:28:04;5.45;;;1.80;;
62848;SDS011;48941;49.516;8.286;2023-11-19T13:30:32;5.70;;;1.40;;
62848;SDS011;48941;49.516;8.286;2023-11-19T13:33:01;3.53;;;1.33;;
62848;SDS011;48941;49.516;8.286;2023-11-19T13:35:29;6.18;;;1.70;;
62848;SDS011;48941;49.516;8.286;2023-11-19T13:37:57;1.95;;;1.27;;
62848;SDS011;48941;49.516;8.286;2023-11-19T13:40:25;7.57;;;1.40;;
62848;SDS011;48941;49.516;8.286;2023-11-19T13:42:53;5.82;;;1.50;;
62848;SDS011;48941;49.516;8.286;2023-11-19T13:45:21;5.47;;;3.13;;
62848;SDS011;48941;49.516;8.286;2023-11-19T13:47:51;4.50;;;1.40;;
62848;SDS011;48941;49.516;8.286;2023-11-19T13:50:20;4.47;;;1.33;;
62848;SDS011;48941;49.516;8.286;2023-11-19T13:52:49;4.82;;;1.67;;
62848;SDS011;48941;49.516;8.286;2023-11-19T13:55:17;2.97;;;1.15;;
62848;SDS011;48941;49.516;8.286;2023-11-19T13:57:44;3.10;;;1.20;;
62848;SDS011;48941;49.516;8.286;2023-11-19T14:00:13;4.60;;;1.50;;
62848;SDS011;48941;49.516;8.286;2023-11-19T14:02:42;6.38;;;1.30;;
62848;SDS011;48941;49.516;8.286;2023-11-19T14:05:11;2.85;;;1.38;;
62848;SDS011;48941;49.516;8.286;2023-11-19T14:07:41;5.28;;;1.50;;
62848;SDS011;48941;49.516;8.286;2023-11-19T14:10:09;7.15;;;1.75;;
62848;SDS011;48941;49.516;8.286;2023-11-19T14:12:38;3.10;;;1.55;;
62848;SDS011;48941;49.516;8.286;2023-11-19T14:15:06;3.95;;;1.63;;
62848;SDS011;48941;49.516;8.286;2023-11-19T14:17:36;3.13;;;1.85;;
62848;SDS011;48941;49.516;8.286;2023-11-19T14:20:04;5.63;;;1.65;;
62848;SDS011;48941;49.516;8.286;2023-11-19T14:22:41;4.80;;;1.60;;
62848;SDS011;48941;49.516;8.286;2023-11-19T14:25:09;3.80;;;1.52;;
62848;SDS011;48941;49.516;8.286;2023-11-19T14:27:38;3.28;;;1.30;;
62848;SDS011;48941;49.516;8.286;2023-11-19T14:30:08;4.70;;;1.30;;
62848;SDS011;48941;49.516;8.286;2023-11-19T14:32:39;2.70;;;1.60;;
62848;SDS011;48941;49.516;8.286;2023-11-19T14:35:10;9.43;;;1.83;;
62848;SDS011;48941;49.516;8.286;2023-11-19T14:37:39;3.17;;;1.33;;
62848;SDS011;48941;49.516;8.286;2023-11-19T14:40:10;4.67;;;1.40;;
62848;SDS011;48941;49.516;8.286;2023-11-19T14:42:39;4.07;;;1.70;;
62848;SDS011;48941;49.516;8.286;2023-11-19T14:45:07;5.88;;;2.38;;
62848;SDS011;48941;49.516;8.286;2023-11-19T14:47:38;3.88;;;1.40;;
62848;SDS011;48941;49.516;8.286;2023-11-19T14:50:07;7.97;;;2.17;;
62848;SDS011;48941;49.516;8.286;2023-11-19T14:52:35;6.55;;;2.47;;
62848;SDS011;48941;49.516;8.286;2023-11-19T14:55:05;5.15;;;1.67;;
62848;SDS011;48941;49.516;8.286;2023-11-19T14:57:33;5.30;;;1.70;;
62848;SDS011;48941;49.516;8.286;2023-11-19T15:00:03;10.77;;;1.90;;
62848;SDS011;48941;49.516;8.286;2023-11-19T15:02:39;3.33;;;1.70;;
62848;SDS011;48941;49.516;8.286;2023-11-19T15:05:08;5.43;;;1.90;;
62848;SDS011;48941;49.516;8.286;2023-11-19T15:07:38;5.13;;;1.77;;
62848;SDS011;48941;49.516;8.286;2023-11-19T15:10:08;6.65;;;1.77;;
62848;SDS011;48941;49.516;8.286;2023-11-19T15:12:37;7.05;;;2.15;;